sensor_id;sensor_type;location;lat;lon;timestamp;pressure;altitude;pressure_sealevel;temperature;humidity
33191;BME280;19554;42.652;23.364;2022-07-29T00:00:58;94772.50;;;21.15;63.00
33191;BME280;19554;42.652;23.364;2022-07-29T00:03:24;94740.66;;;20.96;63.02
33191;BME280;19554;42.652;23.364;2022-07-29T00:05:49;94719.28;;;20.79;62.67
33191;BME280;19554;42.652;23.364;2022-07-29T00:08:15;94795.00;;;21.16;63.14
33191;BME280;19554;42.652;23.364;2022-07-29T00:10:42;94796.34;;;21.06;63.50
33191;BME280;19554;42.652;23.364;2022-07-29T00:13:08;94802.97;;;21.09;63.71
33191;BME280;19554;42.652;23.364;2022-07-29T00:15:33;94797.38;;;21.17;63.15
33191;BME280;19554;42.652;23.364;2022-07-29T00:17:59;94805.16;;;21.19;63.15
33191;BME280;19554;42.652;23.364;2022-07-29T00:20:24;94808.16;;;21.14;63.09
33191;BME280;19554;42.652;23.364;2022-07-29T00:22:50;94799.72;;;21.19;63.00
33191;BME280;19554;42.652;23.364;2022-07-29T00:25:15;94805.63;;;21.21;62.85
33191;BME280;19554;42.652;23.364;2022-07-29T00:27:41;94802.38;;;21.31;62.39
33191;BME280;19554;42.652;23.364;2022-07-29T00:30:06;94797.63;;;21.28;62.26
33191;BME280;19554;42.652;23.364;2022-07-29T00:32:33;94790.66;;;21.27;62.49
33191;BME280;19554;42.652;23.364;2022-07-29T00:34:58;94757.44;;;21.02;62.61
33191;BME280;19554;42.652;23.364;2022-07-29T00:37:42;94773.47;;;21.23;62.49
33191;BME280;19554;42.652;23.364;2022-07-29T00:40:08;94785.75;;;21.48;62.46
33191;BME280;19554;42.652;23.364;2022-07-29T00:42:48;94768.03;;;21.55;61.44
33191;BME280;19554;42.652;23.364;2022-07-29T00:45:14;94793.50;;;21.82;61.17
33191;BME280;19554;42.652;23.364;2022-07-29T00:47:40;94795.22;;;21.90;60.88
33191;BME280;19554;42.652;23.364;2022-07-29T00:50:07;94793.44;;;21.97;60.75
33191;BME280;19554;42.652;23.364;2022-07-29T00:52:35;94713.13;;;21.29;61.21
33191;BME280;19554;42.652;23.364;2022-07-29T00:55:03;94726.16;;;21.56;60.35
33191;BME280;19554;42.652;23.364;2022-07-29T00:57:29;94799.78;;;22.21;59.92
33191;BME280;19554;42.652;23.364;2022-07-29T00:59:55;94796.16;;;22.33;59.97
33191;BME280;19554;42.652;23.364;2022-07-29T01:02:21;94720.63;;;21.87;59.34
33191;BME280;19554;42.652;23.364;2022-07-29T01:04:46;94752.94;;;22.12;59.18
33191;BME280;19554;42.652;23.364;2022-07-29T01:07:12;94793.50;;;22.36;59.88
33191;BME280;19554;42.652;23.364;2022-07-29T01:09:38;94712.31;;;21.80;60.42
33191;BME280;19554;42.652;23.364;2022-07-29T01:12:04;94790.09;;;22.39;60.18
33191;BME280;19554;42.652;23.364;2022-07-29T01:14:30;94796.00;;;22.45;59.69
33191;BME280;19554;42.652;23.364;2022-07-29T01:17:24;94787.19;;;22.52;59.29
33191;BME280;19554;42.652;23.364;2022-07-29T01:30:25;94779.16;;;22.59;58.93
33191;BME280;19554;42.652;23.364;2022-07-29T01:32:55;94709.44;;;22.12;59.22
33191;BME280;19554;42.652;23.364;2022-07-29T01:35:41;94783.38;;;22.56;58.82
33191;BME280;19554;42.652;23.364;2022-07-29T01:38:14;94742.19;;;22.35;58.53
33191;BME280;19554;42.652;23.364;2022-07-29T01:40:54;94770.16;;;22.55;58.69
33191;BME280;19554;42.652;23.364;2022-07-29T01:43:28;94774.03;;;22.54;58.36
33191;BME280;19554;42.652;23.364;2022-07-29T01:45:59;94767.75;;;22.50;58.54
33191;BME280;19554;42.652;23.364;2022-07-29T01:49:10;94771.53;;;22.45;58.72
33191;BME280;19554;42.652;23.364;2022-07-29T01:51:25;94761.00;;;22.24;59.47
33191;BME280;19554;42.652;23.364;2022-07-29T01:54:08;94759.84;;;22.06;59.93
33191;BME280;19554;42.652;23.364;2022-07-29T01:56:37;94747.00;;;21.87;60.35
33191;BME280;19554;42.652;23.364;2022-07-29T01:59:05;94769.81;;;22.01;60.57
33191;BME280;19554;42.652;23.364;2022-07-29T02:01:33;94769.25;;;22.12;59.92
33191;BME280;19554;42.652;23.364;2022-07-29T02:04:02;94769.03;;;22.17;59.63
33191;BME280;19554;42.652;23.364;2022-07-29T02:06:29;94722.44;;;21.99;59.74
33191;BME280;19554;42.652;23.364;2022-07-29T02:08:58;94724.78;;;22.00;59.71
33191;BME280;19554;42.652;23.364;2022-07-29T02:11:25;94743.00;;;22.16;59.38
33191;BME280;19554;42.652;23.364;2022-07-29T02:13:52;94749.41;;;22.27;59.15
33191;BME280;19554;42.652;23.364;2022-07-29T02:16:21;94739.81;;;22.14;58.70
33191;BME280;19554;42.652;23.364;2022-07-29T02:18:49;94754.00;;;22.23;59.05
33191;BME280;19554;42.652;23.364;2022-07-29T02:21:20;94752.00;;;22.20;59.02
33191;BME280;19554;42.652;23.364;2022-07-29T02:23:46;94716.03;;;21.91;59.00
33191;BME280;19554;42.652;23.364;2022-07-29T02:26:13;94740.28;;;22.16;59.03
33191;BME280;19554;42.652;23.364;2022-07-29T02:28:40;94751.31;;;22.07;59.50
33191;BME280;19554;42.652;23.364;2022-07-29T02:31:07;94690.66;;;21.64;59.67
33191;BME280;19554;42.652;23.364;2022-07-29T02:33:33;94759.97;;;22.13;59.43
33191;BME280;19554;42.652;23.364;2022-07-29T02:36:00;94757.72;;;22.15;59.63
33191;BME280;19554;42.652;23.364;2022-07-29T02:38:27;94743.66;;;22.13;59.80
33191;BME280;19554;42.652;23.364;2022-07-29T02:41:48;94731.94;;;22.09;60.27
33191;BME280;19554;42.652;23.364;2022-07-29T02:44:17;94705.72;;;21.81;60.20
33191;BME280;19554;42.652;23.364;2022-07-29T02:46:49;94690.94;;;21.43;60.98
33191;BME280;19554;42.652;23.364;2022-07-29T02:51:46;94707.28;;;20.80;64.31
33191;BME280;19554;42.652;23.364;2022-07-29T02:54:26;94669.63;;;20.31;65.39
33191;BME280;19554;42.652;23.364;2022-07-29T02:56:55;94695.91;;;20.30;66.06
33191;BME280;19554;42.652;23.364;2022-07-29T02:59:25;94729.16;;;20.27;67.24
33191;BME280;19554;42.652;23.364;2022-07-29T03:01:52;94671.91;;;19.73;68.06
33191;BME280;19554;42.652;23.364;2022-07-29T03:04:20;94736.16;;;20.00;68.41
33191;BME280;19554;42.652;23.364;2022-07-29T03:06:48;94750.13;;;20.02;68.29
33191;BME280;19554;42.652;23.364;2022-07-29T03:09:14;94734.81;;;19.94;69.22
33191;BME280;19554;42.652;23.364;2022-07-29T03:11:42;94691.09;;;19.68;69.63
33191;BME280;19554;42.652;23.364;2022-07-29T03:14:08;94739.81;;;19.80;70.39
33191;BME280;19554;42.652;23.364;2022-07-29T03:16:34;94710.84;;;19.56;70.73
33191;BME280;19554;42.652;23.364;2022-07-29T03:19:03;94691.44;;;19.54;70.79
33191;BME280;19554;42.652;23.364;2022-07-29T03:21:29;94732.59;;;19.84;70.75
33191;BME280;19554;42.652;23.364;2022-07-29T03:23:55;94745.41;;;19.99;70.74
33191;BME280;19554;42.652;23.364;2022-07-29T03:26:20;94714.72;;;19.95;70.55
33191;BME280;19554;42.652;23.364;2022-07-29T03:28:46;94740.50;;;20.17;70.19
33191;BME280;19554;42.652;23.364;2022-07-29T03:31:11;94745.75;;;20.26;70.09
33191;BME280;19554;42.652;23.364;2022-07-29T03:33:36;94747.09;;;20.32;69.82
33191;BME280;19554;42.652;23.364;2022-07-29T03:36:02;94742.53;;;20.36;69.96
33191;BME280;19554;42.652;23.364;2022-07-29T03:38:29;94745.25;;;20.36;70.17
33191;BME280;19554;42.652;23.364;2022-07-29T03:41:00;94741.16;;;20.42;69.68
33191;BME280;19554;42.652;23.364;2022-07-29T03:43:30;94741.56;;;20.56;69.40
33191;BME280;19554;42.652;23.364;2022-07-29T03:45:57;94646.84;;;20.04;68.83
33191;BME280;19554;42.652;23.364;2022-07-29T03:48:25;94642.72;;;20.10;68.28
33191;BME280;19554;42.652;23.364;2022-07-29T03:50:51;94747.03;;;20.88;68.01
33191;BME280;19554;42.652;23.364;2022-07-29T03:53:17;94758.78;;;20.92;67.91
33191;BME280;19554;42.652;23.364;2022-07-29T03:55:45;94755.34;;;20.95;67.68
33191;BME280;19554;42.652;23.364;2022-07-29T03:58:14;94713.59;;;20.84;67.75
33191;BME280;19554;42.652;23.364;2022-07-29T04:00:42;94713.59;;;20.84;66.86
33191;BME280;19554;42.652;23.364;2022-07-29T04:03:08;94744.75;;;21.22;65.90
33191;BME280;19554;42.652;23.364;2022-07-29T04:05:34;94754.94;;;21.41;65.67
33191;BME280;19554;42.652;23.364;2022-07-29T04:07:59;94760.84;;;21.46;65.09
33191;BME280;19554;42.652;23.364;2022-07-29T04:10:26;94726.19;;;21.24;64.64
33191;BME280;19554;42.652;23.364;2022-07-29T04:12:51;94686.69;;;21.26;64.15
33191;BME280;19554;42.652;23.364;2022-07-29T04:15:17;94758.75;;;22.10;62.55
33191;BME280;19554;42.652;23.364;2022-07-29T04:17:43;94721.06;;;22.09;61.18
33191;BME280;19554;42.652;23.364;2022-07-29T04:20:09;94758.44;;;22.51;60.15
33191;BME280;19554;42.652;23.364;2022-07-29T04:22:37;94754.47;;;22.48;59.95
33191;BME280;19554;42.652;23.364;2022-07-29T04:25:03;94669.75;;;21.88;60.46
33191;BME280;19554;42.652;23.364;2022-07-29T04:27:28;94719.94;;;22.29;59.72
33191;BME280;19554;42.652;23.364;2022-07-29T04:29:54;94746.97;;;22.22;60.67
33191;BME280;19554;42.652;23.364;2022-07-29T04:32:19;94741.41;;;22.15;60.80
33191;BME280;19554;42.652;23.364;2022-07-29T04:34:45;94737.78;;;21.91;61.19
33191;BME280;19554;42.652;23.364;2022-07-29T04:37:11;94690.59;;;21.61;61.37
33191;BME280;19554;42.652;23.364;2022-07-29T04:39:37;94754.41;;;22.44;60.65
33191;BME280;19554;42.652;23.364;2022-07-29T04:42:03;94753.63;;;22.86;59.27
33191;BME280;19554;42.652;23.364;2022-07-29T04:44:28;94764.31;;;23.18;57.52
33191;BME280;19554;42.652;23.364;2022-07-29T04:46:54;94742.28;;;23.53;56.38
33191;BME280;19554;42.652;23.364;2022-07-29T04:49:20;94728.72;;;23.83;55.20
33191;BME280;19554;42.652;23.364;2022-07-29T04:51:45;94728.63;;;24.06;54.14
33191;BME280;19554;42.652;23.364;2022-07-29T04:54:10;94754.31;;;23.75;55.36
33191;BME280;19554;42.652;23.364;2022-07-29T04:56:36;94749.47;;;23.92;55.13
33191;BME280;19554;42.652;23.364;2022-07-29T04:59:01;94701.59;;;23.94;53.97
33191;BME280;19554;42.652;23.364;2022-07-29T05:01:27;94774.66;;;24.72;52.93
33191;BME280;19554;42.652;23.364;2022-07-29T05:03:52;94769.22;;;24.75;52.70
33191;BME280;19554;42.652;23.364;2022-07-29T05:06:17;94751.44;;;24.55;52.28
33191;BME280;19554;42.652;23.364;2022-07-29T05:08:43;94752.13;;;24.15;53.58
33191;BME280;19554;42.652;23.364;2022-07-29T05:11:08;94687.88;;;24.17;53.11
33191;BME280;19554;42.652;23.364;2022-07-29T05:13:34;94744.66;;;24.75;51.81
33191;BME280;19554;42.652;23.364;2022-07-29T05:15:59;94729.97;;;24.91;51.80
33191;BME280;19554;42.652;23.364;2022-07-29T05:18:25;94720.84;;;25.13;50.89
33191;BME280;19554;42.652;23.364;2022-07-29T05:20:50;94694.94;;;25.00;50.57
33191;BME280;19554;42.652;23.364;2022-07-29T05:23:16;94766.28;;;25.36;50.64
33191;BME280;19554;42.652;23.364;2022-07-29T05:25:42;94785.84;;;25.41;51.56
33191;BME280;19554;42.652;23.364;2022-07-29T05:28:07;94780.34;;;25.38;51.71
33191;BME280;19554;42.652;23.364;2022-07-29T05:30:33;94784.69;;;25.01;52.20
33191;BME280;19554;42.652;23.364;2022-07-29T05:32:58;94781.06;;;25.27;51.90
33191;BME280;19554;42.652;23.364;2022-07-29T05:35:24;94746.31;;;25.28;51.92
33191;BME280;19554;42.652;23.364;2022-07-29T05:37:49;94778.78;;;25.85;50.80
33191;BME280;19554;42.652;23.364;2022-07-29T05:40:15;94779.22;;;25.94;50.80
33191;BME280;19554;42.652;23.364;2022-07-29T05:42:40;94802.75;;;26.06;49.40
33191;BME280;19554;42.652;23.364;2022-07-29T05:45:06;94779.91;;;25.80;49.45
33191;BME280;19554;42.652;23.364;2022-07-29T05:47:32;94757.53;;;25.67;49.29
33191;BME280;19554;42.652;23.364;2022-07-29T05:49:57;94751.03;;;25.83;48.79
33191;BME280;19554;42.652;23.364;2022-07-29T05:52:23;94784.75;;;26.08;48.23
33191;BME280;19554;42.652;23.364;2022-07-29T05:54:48;94708.84;;;25.28;48.58
33191;BME280;19554;42.652;23.364;2022-07-29T05:57:22;94793.28;;;25.03;50.50
33191;BME280;19554;42.652;23.364;2022-07-29T05:59:48;94760.19;;;24.71;50.99
33191;BME280;19554;42.652;23.364;2022-07-29T06:02:13;94786.09;;;24.88;51.51
33191;BME280;19554;42.652;23.364;2022-07-29T06:04:39;94755.72;;;24.90;50.47
33191;BME280;19554;42.652;23.364;2022-07-29T06:07:05;94765.25;;;25.10;50.78
33191;BME280;19554;42.652;23.364;2022-07-29T06:09:30;94700.41;;;25.00;50.51
33191;BME280;19554;42.652;23.364;2022-07-29T06:11:56;94775.09;;;25.66;49.43
33191;BME280;19554;42.652;23.364;2022-07-29T06:14:23;94746.91;;;25.55;49.67
33191;BME280;19554;42.652;23.364;2022-07-29T06:16:48;94803.63;;;26.24;48.62
33191;BME280;19554;42.652;23.364;2022-07-29T06:19:13;94787.88;;;26.03;48.88
33191;BME280;19554;42.652;23.364;2022-07-29T06:21:43;94794.34;;;25.81;49.73
33191;BME280;19554;42.652;23.364;2022-07-29T06:24:10;94786.47;;;25.72;50.01
33191;BME280;19554;42.652;23.364;2022-07-29T06:26:35;94794.88;;;26.00;49.99
33191;BME280;19554;42.652;23.364;2022-07-29T06:29:01;94761.31;;;26.07;48.78
33191;BME280;19554;42.652;23.364;2022-07-29T06:31:26;94793.53;;;26.42;47.73
33191;BME280;19554;42.652;23.364;2022-07-29T06:33:52;94781.09;;;26.59;48.06
33191;BME280;19554;42.652;23.364;2022-07-29T06:36:18;94762.00;;;26.74;47.41
33191;BME280;19554;42.652;23.364;2022-07-29T06:38:43;94742.84;;;26.77;47.06
33191;BME280;19554;42.652;23.364;2022-07-29T06:41:09;94784.34;;;27.04;46.80
33191;BME280;19554;42.652;23.364;2022-07-29T06:43:41;94785.97;;;27.16;47.21
33191;BME280;19554;42.652;23.364;2022-07-29T06:46:12;94789.91;;;27.33;47.07
33191;BME280;19554;42.652;23.364;2022-07-29T06:48:40;94778.53;;;27.45;46.87
33191;BME280;19554;42.652;23.364;2022-07-29T06:51:06;94751.53;;;27.51;45.67
33191;BME280;19554;42.652;23.364;2022-07-29T06:53:32;94782.09;;;27.78;45.37
33191;BME280;19554;42.652;23.364;2022-07-29T06:55:59;94735.47;;;27.31;45.01
33191;BME280;19554;42.652;23.364;2022-07-29T06:58:25;94708.47;;;27.15;45.63
33191;BME280;19554;42.652;23.364;2022-07-29T07:00:51;94776.59;;;27.35;46.36
33191;BME280;19554;42.652;23.364;2022-07-29T07:03:17;94759.75;;;27.26;46.06
33191;BME280;19554;42.652;23.364;2022-07-29T07:05:44;94752.28;;;27.08;46.44
33191;BME280;19554;42.652;23.364;2022-07-29T07:08:10;94770.31;;;27.67;45.98
33191;BME280;19554;42.652;23.364;2022-07-29T07:10:36;94771.91;;;27.60;45.62
33191;BME280;19554;42.652;23.364;2022-07-29T07:13:01;94724.88;;;27.08;45.96
33191;BME280;19554;42.652;23.364;2022-07-29T07:15:27;94769.50;;;27.05;46.17
33191;BME280;19554;42.652;23.364;2022-07-29T07:17:53;94780.44;;;26.98;46.39
33191;BME280;19554;42.652;23.364;2022-07-29T07:20:18;94776.56;;;27.21;46.72
33191;BME280;19554;42.652;23.364;2022-07-29T07:22:44;94766.63;;;26.55;46.72
33191;BME280;19554;42.652;23.364;2022-07-29T07:25:10;94752.84;;;26.37;46.67
33191;BME280;19554;42.652;23.364;2022-07-29T07:27:37;94781.94;;;26.74;45.10
33191;BME280;19554;42.652;23.364;2022-07-29T07:30:06;94771.47;;;27.08;44.80
33191;BME280;19554;42.652;23.364;2022-07-29T07:32:33;94771.88;;;27.14;45.82
33191;BME280;19554;42.652;23.364;2022-07-29T07:34:59;94770.31;;;27.31;44.35
33191;BME280;19554;42.652;23.364;2022-07-29T07:37:24;94772.28;;;27.12;44.73
33191;BME280;19554;42.652;23.364;2022-07-29T07:39:51;94681.78;;;26.62;44.61
33191;BME280;19554;42.652;23.364;2022-07-29T07:42:17;94746.41;;;27.06;45.25
33191;BME280;19554;42.652;23.364;2022-07-29T07:44:42;94764.03;;;27.09;44.54
33191;BME280;19554;42.652;23.364;2022-07-29T07:47:08;94766.03;;;27.37;44.75
33191;BME280;19554;42.652;23.364;2022-07-29T07:49:34;94750.72;;;27.68;42.67
33191;BME280;19554;42.652;23.364;2022-07-29T07:51:59;94678.69;;;27.53;42.27
33191;BME280;19554;42.652;23.364;2022-07-29T07:54:25;94763.97;;;28.16;41.71
33191;BME280;19554;42.652;23.364;2022-07-29T07:56:50;94767.94;;;28.08;42.03
33191;BME280;19554;42.652;23.364;2022-07-29T07:59:16;94765.91;;;28.23;42.07
33191;BME280;19554;42.652;23.364;2022-07-29T08:01:42;94747.81;;;28.43;41.36
33191;BME280;19554;42.652;23.364;2022-07-29T08:04:08;94709.47;;;28.22;41.14
33191;BME280;19554;42.652;23.364;2022-07-29T08:06:34;94765.53;;;28.28;41.26
33191;BME280;19554;42.652;23.364;2022-07-29T08:09:03;94760.84;;;28.18;40.62
33191;BME280;19554;42.652;23.364;2022-07-29T08:11:29;94700.19;;;27.65;40.83
33191;BME280;19554;42.652;23.364;2022-07-29T08:13:54;94745.25;;;27.79;41.55
33191;BME280;19554;42.652;23.364;2022-07-29T08:16:20;94720.19;;;27.66;41.38
33191;BME280;19554;42.652;23.364;2022-07-29T08:18:46;94764.75;;;28.17;41.38
33191;BME280;19554;42.652;23.364;2022-07-29T08:21:12;94704.44;;;28.02;40.33
33191;BME280;19554;42.652;23.364;2022-07-29T08:23:38;94738.91;;;28.18;40.42
33191;BME280;19554;42.652;23.364;2022-07-29T08:26:08;94751.72;;;28.49;40.19
33191;BME280;19554;42.652;23.364;2022-07-29T08:28:39;94753.66;;;28.56;39.22
33191;BME280;19554;42.652;23.364;2022-07-29T08:31:05;94747.75;;;28.61;39.28
33191;BME280;19554;42.652;23.364;2022-07-29T08:33:32;94735.84;;;28.82;39.11
33191;BME280;19554;42.652;23.364;2022-07-29T08:35:57;94667.72;;;28.63;38.55
33191;BME280;19554;42.652;23.364;2022-07-29T08:38:23;94749.69;;;29.34;37.94
33191;BME280;19554;42.652;23.364;2022-07-29T08:40:48;94736.22;;;29.43;36.85
33191;BME280;19554;42.652;23.364;2022-07-29T08:43:14;94749.09;;;29.61;36.19
33191;BME280;19554;42.652;23.364;2022-07-29T08:45:47;94716.09;;;29.53;35.47
33191;BME280;19554;42.652;23.364;2022-07-29T08:48:14;94747.34;;;29.78;35.42
33191;BME280;19554;42.652;23.364;2022-07-29T08:50:41;94748.78;;;29.93;35.18
33191;BME280;19554;42.652;23.364;2022-07-29T08:53:11;94751.50;;;29.96;34.73
33191;BME280;19554;42.652;23.364;2022-07-29T08:55:40;94744.72;;;30.05;34.93
33191;BME280;19554;42.652;23.364;2022-07-29T08:58:06;94741.38;;;29.86;34.82
33191;BME280;19554;42.652;23.364;2022-07-29T09:00:32;94743.31;;;29.89;34.77
33191;BME280;19554;42.652;23.364;2022-07-29T09:03:01;94737.81;;;29.89;34.33
33191;BME280;19554;42.652;23.364;2022-07-29T09:05:27;94689.38;;;29.58;34.90
33191;BME280;19554;42.652;23.364;2022-07-29T09:07:53;94705.94;;;29.92;34.16
33191;BME280;19554;42.652;23.364;2022-07-29T09:10:19;94719.34;;;30.24;33.82
33191;BME280;19554;42.652;23.364;2022-07-29T09:12:45;94731.25;;;30.14;34.18
33191;BME280;19554;42.652;23.364;2022-07-29T09:15:11;94736.75;;;30.14;33.82
33191;BME280;19554;42.652;23.364;2022-07-29T09:17:47;94687.03;;;29.52;34.23
33191;BME280;19554;42.652;23.364;2022-07-29T09:20:14;94725.50;;;29.56;34.73
33191;BME280;19554;42.652;23.364;2022-07-29T09:22:40;94746.03;;;29.48;34.99
33191;BME280;19554;42.652;23.364;2022-07-29T09:25:06;94739.00;;;29.40;35.08
33191;BME280;19554;42.652;23.364;2022-07-29T09:27:31;94678.53;;;28.84;35.67
33191;BME280;19554;42.652;23.364;2022-07-29T09:30:06;94735.22;;;29.23;35.52
33191;BME280;19554;42.652;23.364;2022-07-29T09:32:33;94729.81;;;29.09;35.67
33191;BME280;19554;42.652;23.364;2022-07-29T09:35:24;94731.53;;;28.81;36.79
33191;BME280;19554;42.652;23.364;2022-07-29T09:37:50;94719.72;;;28.88;36.85
33191;BME280;19554;42.652;23.364;2022-07-29T09:40:27;94727.47;;;29.11;36.56
33191;BME280;19554;42.652;23.364;2022-07-29T09:42:53;94727.63;;;29.41;36.80
33191;BME280;19554;42.652;23.364;2022-07-29T09:45:40;94722.38;;;29.61;35.66
33191;BME280;19554;42.652;23.364;2022-07-29T09:48:24;94728.56;;;29.69;36.39
33191;BME280;19554;42.652;23.364;2022-07-29T09:50:50;94700.69;;;29.67;35.27
33191;BME280;19554;42.652;23.364;2022-07-29T09:53:35;94719.09;;;29.73;35.80
33191;BME280;19554;42.652;23.364;2022-07-29T09:56:03;94718.47;;;29.55;36.18
33191;BME280;19554;42.652;23.364;2022-07-29T09:58:29;94712.56;;;29.53;36.67
33191;BME280;19554;42.652;23.364;2022-07-29T10:00:55;94709.91;;;29.42;36.48
33191;BME280;19554;42.652;23.364;2022-07-29T10:03:23;94633.34;;;28.92;36.69
33191;BME280;19554;42.652;23.364;2022-07-29T10:06:11;94711.41;;;29.54;35.90
33191;BME280;19554;42.652;23.364;2022-07-29T10:08:38;94668.59;;;29.04;36.85
33191;BME280;19554;42.652;23.364;2022-07-29T10:11:14;94692.50;;;29.60;36.33
33191;BME280;19554;42.652;23.364;2022-07-29T10:13:41;94694.66;;;29.79;35.39
33191;BME280;19554;42.652;23.364;2022-07-29T10:16:07;94695.56;;;29.69;35.93
33191;BME280;19554;42.652;23.364;2022-07-29T10:18:33;94686.72;;;29.43;36.12
33191;BME280;19554;42.652;23.364;2022-07-29T10:21:00;94694.28;;;29.32;36.50
33191;BME280;19554;42.652;23.364;2022-07-29T10:23:27;94649.13;;;28.81;37.33
33191;BME280;19554;42.652;23.364;2022-07-29T10:25:53;94689.66;;;29.22;36.97
33191;BME280;19554;42.652;23.364;2022-07-29T10:28:19;94680.06;;;29.44;36.84
33191;BME280;19554;42.652;23.364;2022-07-29T10:30:45;94668.91;;;29.59;36.61
33191;BME280;19554;42.652;23.364;2022-07-29T10:36:27;94676.53;;;29.85;36.08
33191;BME280;19554;42.652;23.364;2022-07-29T10:39:23;94674.00;;;29.98;36.39
33191;BME280;19554;42.652;23.364;2022-07-29T10:42:23;94665.19;;;30.14;35.42
33191;BME280;19554;42.652;23.364;2022-07-29T10:44:51;94658.06;;;30.20;35.09
33191;BME280;19554;42.652;23.364;2022-07-29T10:47:22;94657.00;;;30.41;35.55
33191;BME280;19554;42.652;23.364;2022-07-29T10:49:58;94657.84;;;30.65;34.26
33191;BME280;19554;42.652;23.364;2022-07-29T10:52:23;94647.84;;;30.48;32.95
33191;BME280;19554;42.652;23.364;2022-07-29T10:54:52;94661.16;;;30.53;32.89
33191;BME280;19554;42.652;23.364;2022-07-29T10:57:25;94657.88;;;30.34;32.96
33191;BME280;19554;42.652;23.364;2022-07-29T11:07:37;94647.94;;;30.10;33.34
33191;BME280;19554;42.652;23.364;2022-07-29T11:15:10;94596.34;;;29.83;34.15
33191;BME280;19554;42.652;23.364;2022-07-29T11:20:38;94634.19;;;30.40;34.28
33191;BME280;19554;42.652;23.364;2022-07-29T11:23:26;94633.19;;;30.54;32.96
33191;BME280;19554;42.652;23.364;2022-07-29T11:31:48;94628.06;;;30.26;33.13
33191;BME280;19554;42.652;23.364;2022-07-29T11:34:29;94631.63;;;30.26;33.42
33191;BME280;19554;42.652;23.364;2022-07-29T11:39:42;94631.88;;;30.35;33.42
33191;BME280;19554;42.652;23.364;2022-07-29T11:44:59;94621.69;;;30.32;31.72
33191;BME280;19554;42.652;23.364;2022-07-29T11:47:27;94609.84;;;30.35;31.92
33191;BME280;19554;42.652;23.364;2022-07-29T11:49:55;94608.19;;;30.41;32.03
33191;BME280;19554;42.652;23.364;2022-07-29T11:52:21;94622.22;;;30.51;32.41
33191;BME280;19554;42.652;23.364;2022-07-29T11:54:48;94611.22;;;30.51;32.86
33191;BME280;19554;42.652;23.364;2022-07-29T11:57:20;94618.53;;;30.61;31.83
33191;BME280;19554;42.652;23.364;2022-07-29T11:59:46;94601.19;;;30.64;31.74
33191;BME280;19554;42.652;23.364;2022-07-29T12:02:14;94615.47;;;30.82;31.64
33191;BME280;19554;42.652;23.364;2022-07-29T12:04:52;94609.00;;;30.92;31.36
33191;BME280;19554;42.652;23.364;2022-07-29T12:07:26;94605.78;;;30.98;30.89
33191;BME280;19554;42.652;23.364;2022-07-29T12:09:52;94595.41;;;31.05;30.97
33191;BME280;19554;42.652;23.364;2022-07-29T12:12:19;94600.09;;;31.08;31.00
33191;BME280;19554;42.652;23.364;2022-07-29T12:14:44;94576.31;;;30.95;31.00
33191;BME280;19554;42.652;23.364;2022-07-29T12:17:30;94603.88;;;31.18;30.40
33191;BME280;19554;42.652;23.364;2022-07-29T12:19:57;94603.69;;;31.29;30.71
33191;BME280;19554;42.652;23.364;2022-07-29T12:22:27;94605.28;;;31.26;30.33
33191;BME280;19554;42.652;23.364;2022-07-29T12:24:54;94612.34;;;31.27;30.26
33191;BME280;19554;42.652;23.364;2022-07-29T12:27:19;94551.63;;;30.87;30.79
33191;BME280;19554;42.652;23.364;2022-07-29T12:29:55;94593.56;;;31.22;30.35
33191;BME280;19554;42.652;23.364;2022-07-29T12:32:21;94603.88;;;31.18;30.92
33191;BME280;19554;42.652;23.364;2022-07-29T12:34:47;94602.16;;;31.24;31.19
33191;BME280;19554;42.652;23.364;2022-07-29T12:37:12;94600.47;;;31.30;30.51
33191;BME280;19554;42.652;23.364;2022-07-29T12:39:38;94598.91;;;31.33;30.32
33191;BME280;19554;42.652;23.364;2022-07-29T12:42:14;94593.06;;;31.27;30.50
33191;BME280;19554;42.652;23.364;2022-07-29T12:44:48;94598.63;;;31.24;30.07
33191;BME280;19554;42.652;23.364;2022-07-29T12:47:14;94591.84;;;31.32;29.90
33191;BME280;19554;42.652;23.364;2022-07-29T12:49:40;94591.13;;;31.24;30.47
33191;BME280;19554;42.652;23.364;2022-07-29T12:54:50;94574.94;;;31.50;29.97
33191;BME280;19554;42.652;23.364;2022-07-29T12:57:15;94582.31;;;31.56;29.90
33191;BME280;19554;42.652;23.364;2022-07-29T12:59:41;94572.03;;;31.57;29.84
33191;BME280;19554;42.652;23.364;2022-07-29T13:02:07;94565.16;;;31.65;29.74
33191;BME280;19554;42.652;23.364;2022-07-29T13:04:55;94493.97;;;31.16;29.99
33191;BME280;19554;42.652;23.364;2022-07-29T13:07:25;94566.03;;;31.62;29.92
33191;BME280;19554;42.652;23.364;2022-07-29T13:09:52;94568.59;;;31.53;29.71
33191;BME280;19554;42.652;23.364;2022-07-29T13:12:18;94568.22;;;31.51;29.47
33191;BME280;19554;42.652;23.364;2022-07-29T13:14:46;94567.16;;;31.45;30.40
33191;BME280;19554;42.652;23.364;2022-07-29T13:19:40;94551.75;;;31.24;30.30
33191;BME280;19554;42.652;23.364;2022-07-29T13:22:11;94553.38;;;31.21;30.91
33191;BME280;19554;42.652;23.364;2022-07-29T13:24:50;94549.44;;;31.22;30.51
33191;BME280;19554;42.652;23.364;2022-07-29T13:27:17;94538.72;;;31.24;30.97
33191;BME280;19554;42.652;23.364;2022-07-29T13:29:43;94516.59;;;31.08;30.92
33191;BME280;19554;42.652;23.364;2022-07-29T13:32:08;94560.28;;;31.33;31.10
33191;BME280;19554;42.652;23.364;2022-07-29T13:34:34;94509.06;;;30.88;30.45
33191;BME280;19554;42.652;23.364;2022-07-29T13:36:59;94536.00;;;31.01;30.76
33191;BME280;19554;42.652;23.364;2022-07-29T13:39:25;94550.88;;;31.07;30.66
33191;BME280;19554;42.652;23.364;2022-07-29T13:41:51;94546.44;;;31.13;30.04
33191;BME280;19554;42.652;23.364;2022-07-29T13:44:16;94536.25;;;31.10;30.04